Time;durP1;ratioP1;P1;durP2;ratioP2;P2;SDS_P1;SDS_P2;PMS_P1;PMS_P2;Temp;Humidity;BMP_temperature;BMP_pressure;BME280_temperature;BME280_humidity;BME280_pressure;Samples;Min_cycle;Max_cycle;Signal;HPM_P1;HPM_P2
2021/05/14 00:01:14;;;;;;;3.60;0.70;;;10.20;90.20;;;;;;5095549;28;20040;-75
2021/05/14 00:03:40;;;;;;;1.85;0.75;;;10.30;90.30;;;;;;5094485;28;20043;-72
2021/05/14 00:06:06;;;;;;;0.77;0.63;;;10.20;90.40;;;;;;5093304;28;20525;-75
2021/05/14 00:08:31;;;;;;;1.15;0.60;;;10.20;90.60;;;;;;5094641;28;20366;-75
2021/05/14 00:10:57;;;;;;;0.63;0.60;;;10.10;90.80;;;;;;5088874;28;20488;-75
2021/05/14 00:13:23;;;;;;;2.00;0.50;;;10.10;90.90;;;;;;5094593;28;20082;-75
2021/05/14 00:15:49;;;;;;;2.10;0.60;;;10.10;91.00;;;;;;5094382;28;20035;-76
2021/05/14 00:18:15;;;;;;;1.33;0.70;;;10.00;91.20;;;;;;5094649;28;20024;-76
2021/05/14 00:20:46;;;;;;;1.58;0.60;;;10.00;91.40;;;;;;5092892;28;20047;-71
2021/05/14 00:23:12;;;;;;;2.63;0.77;;;10.00;91.60;;;;;;5094654;28;20081;-75
2021/05/14 00:25:38;;;;;;;3.25;0.80;;;10.00;91.60;;;;;;5088222;28;20024;-75
2021/05/14 00:28:04;;;;;;;2.42;0.80;;;9.90;91.70;;;;;;5094043;28;20040;-77
2021/05/14 00:30:30;;;;;;;1.35;0.85;;;10.00;91.70;;;;;;5093488;28;20051;-76
2021/05/14 00:32:55;;;;;;;0.90;0.68;;;9.90;91.70;;;;;;5091861;28;20024;-75
2021/05/14 00:35:21;;;;;;;2.13;0.63;;;10.00;91.60;;;;;;5093984;28;20055;-75
2021/05/14 00:37:47;;;;;;;1.10;0.85;;;10.00;91.60;;;;;;5093621;28;20028;-75
2021/05/14 00:40:13;;;;;;;2.22;0.70;;;10.00;91.60;;;;;;5093976;28;20100;-76
2021/05/14 00:42:38;;;;;;;1.45;0.63;;;10.00;91.60;;;;;;5093247;28;20063;-74
2021/05/14 00:45:06;;;;;;;1.55;0.80;;;10.00;91.90;;;;;;5093328;28;20081;-76
2021/05/14 00:47:31;;;;;;;1.15;0.50;;;10.00;91.50;;;;;;5094221;28;20074;-75
2021/05/14 00:49:57;;;;;;;2.03;0.60;;;10.00;91.90;;;;;;5092321;28;20407;-74
2021/05/14 00:52:23;;;;;;;0.77;0.70;;;10.00;92.40;;;;;;5094397;28;20032;-74
2021/05/14 00:54:50;;;;;;;1.35;0.90;;;10.00;92.40;;;;;;5092790;28;20111;-77
2021/05/14 00:57:16;;;;;;;1.02;0.73;;;9.90;92.90;;;;;;5092765;28;20473;-76
2021/05/14 00:59:47;;;;;;;0.70;0.52;;;9.90;92.50;;;;;;5089730;28;20048;-71
2021/05/14 01:02:13;;;;;;;1.48;0.57;;;9.90;92.30;;;;;;5072792;28;20072;-75
2021/05/14 01:04:42;;;;;;;1.77;0.60;;;9.90;92.00;;;;;;5046820;28;20516;-76
2021/05/14 01:07:09;;;;;;;2.15;0.70;;;9.90;92.40;;;;;;5072614;28;20028;-76
2021/05/14 01:09:34;;;;;;;0.98;0.50;;;9.90;92.50;;;;;;5055677;28;20465;-75
2021/05/14 01:12:01;;;;;;;2.47;0.68;;;9.80;92.50;;;;;;5072944;28;20060;-76
2021/05/14 01:14:27;;;;;;;1.50;0.40;;;9.90;92.40;;;;;;5073340;28;20095;-75
2021/05/14 01:16:53;;;;;;;2.67;0.60;;;9.90;92.00;;;;;;5072476;28;20024;-75
2021/05/14 01:19:19;;;;;;;2.30;0.80;;;9.90;91.90;;;;;;5055497;28;20020;-75
2021/05/14 01:21:44;;;;;;;2.95;0.90;;;9.90;91.90;;;;;;5072816;28;20469;-71
2021/05/14 01:24:10;;;;;;;1.35;0.68;;;9.90;91.80;;;;;;5071961;28;20032;-75
2021/05/14 01:26:36;;;;;;;1.10;0.50;;;9.90;92.00;;;;;;5073400;28;20032;-76
2021/05/14 01:29:06;;;;;;;0.93;0.70;;;9.90;92.20;;;;;;5072343;28;20016;-76
2021/05/14 01:31:31;;;;;;;1.25;0.70;;;9.90;92.20;;;;;;5072847;28;20040;-76
2021/05/14 01:33:57;;;;;;;2.13;0.70;;;9.90;92.20;;;;;;5071572;28;20034;-75
2021/05/14 01:36:23;;;;;;;1.67;0.70;;;9.90;92.30;;;;;;5072350;28;20476;-75
2021/05/14 01:38:48;;;;;;;1.27;0.50;;;9.80;92.40;;;;;;5072280;28;20063;-75
2021/05/14 01:41:14;;;;;;;1.00;0.50;;;9.80;92.50;;;;;;5073777;28;20056;-75
2021/05/14 01:43:40;;;;;;;0.82;0.50;;;9.80;92.60;;;;;;5076260;28;20028;-75
2021/05/14 01:46:07;;;;;;;1.13;0.68;;;9.80;92.80;;;;;;5072020;28;20462;-75
2021/05/14 01:48:33;;;;;;;0.85;0.40;;;9.80;93.00;;;;;;5073056;28;20060;-76
2021/05/14 01:51:15;;;;;;;0.93;0.52;;;9.70;93.00;;;;;;5072300;28;20028;-76
2021/05/14 01:53:40;;;;;;;1.17;0.63;;;9.70;93.10;;;;;;5055002;28;20025;-76
2021/05/14 01:56:06;;;;;;;1.52;0.80;;;9.70;93.10;;;;;;5053519;28;20033;-74
2021/05/14 01:58:32;;;;;;;1.27;0.60;;;9.70;93.40;;;;;;5051708;28;20048;-75
2021/05/14 02:00:57;;;;;;;1.65;0.45;;;9.70;93.60;;;;;;5089715;28;20370;-75
2021/05/14 02:03:23;;;;;;;1.42;0.77;;;9.70;93.60;;;;;;5087081;28;20020;-74
2021/05/14 02:05:49;;;;;;;1.55;0.88;;;9.60;93.60;;;;;;5088517;28;20028;-76
2021/05/14 02:08:15;;;;;;;0.73;0.55;;;9.60;93.60;;;;;;5087894;28;20028;-75
2021/05/14 02:10:41;;;;;;;0.60;0.60;;;9.60;93.70;;;;;;5086551;28;20485;-75
2021/05/14 02:13:07;;;;;;;1.02;0.60;;;9.60;93.90;;;;;;5085867;28;20024;-76
2021/05/14 02:15:33;;;;;;;3.03;0.80;;;9.60;94.00;;;;;;5088670;28;20028;-76
2021/05/14 02:17:59;;;;;;;0.88;0.47;;;9.50;94.20;;;;;;5087821;28;20024;-76
2021/05/14 02:20:26;;;;;;;1.48;0.85;;;9.50;94.40;;;;;;5088082;28;20472;-75
2021/05/14 02:22:51;;;;;;;2.17;0.60;;;9.40;95.20;;;;;;5089208;28;20028;-74
2021/05/14 02:25:17;;;;;;;2.33;0.65;;;9.40;95.40;;;;;;5088381;28;20020;-74
2021/05/14 02:27:43;;;;;;;1.17;0.88;;;9.40;95.90;;;;;;5087753;28;20146;-71
2021/05/14 02:30:10;;;;;;;0.95;0.68;;;9.30;96.10;;;;;;5084019;28;20032;-75
2021/05/14 02:32:36;;;;;;;1.85;0.60;;;9.30;96.10;;;;;;5083022;28;20111;-74
2021/05/14 02:35:02;;;;;;;1.90;0.60;;;9.20;96.50;;;;;;5087240;28;20111;-75
2021/05/14 02:37:27;;;;;;;1.90;1.05;;;9.20;96.90;;;;;;5090990;28;20065;-76
2021/05/14 02:39:55;;;;;;;1.02;0.60;;;9.10;97.20;;;;;;5091433;28;20028;-75
2021/05/14 02:42:20;;;;;;;1.15;0.80;;;9.20;96.90;;;;;;5090575;28;20063;-76
2021/05/14 02:44:47;;;;;;;2.08;1.00;;;9.20;97.10;;;;;;5091282;28;20052;-72
2021/05/14 02:47:12;;;;;;;2.22;0.80;;;9.20;97.70;;;;;;5092158;28;20488;-77
2021/05/14 02:49:38;;;;;;;1.40;0.90;;;9.20;98.00;;;;;;5092255;28;20024;-75
2021/05/14 02:52:04;;;;;;;3.05;0.60;;;9.20;97.70;;;;;;5091125;28;20077;-72
2021/05/14 02:54:33;;;;;;;0.75;0.70;;;9.20;97.60;;;;;;5080373;28;20024;-75
2021/05/14 02:57:02;;;;;;;2.38;0.68;;;9.20;97.80;;;;;;5090569;28;20453;-75
2021/05/14 02:59:28;;;;;;;1.52;0.82;;;9.10;97.80;;;;;;5080151;28;20045;-75
2021/05/14 03:01:54;;;;;;;2.17;1.05;;;9.10;97.90;;;;;;5052585;28;20047;-75
2021/05/14 03:04:19;;;;;;;1.50;0.70;;;9.10;98.00;;;;;;5052772;28;20431;-77
2021/05/14 03:06:46;;;;;;;3.30;0.70;;;9.10;97.90;;;;;;5070463;28;20381;-72
2021/05/14 03:09:12;;;;;;;2.30;0.90;;;9.10;97.80;;;;;;5053474;28;20107;-76
2021/05/14 03:11:38;;;;;;;3.38;0.80;;;9.10;97.70;;;;;;5071565;28;20111;-75
2021/05/14 03:14:05;;;;;;;2.58;0.55;;;9.10;97.90;;;;;;5070417;28;20032;-76
2021/05/14 03:16:32;;;;;;;1.48;0.70;;;9.10;98.00;;;;;;5053394;28;20120;-77
2021/05/14 03:18:58;;;;;;;1.52;0.70;;;9.10;98.40;;;;;;5052686;28;20595;-77
2021/05/14 03:21:23;;;;;;;1.33;0.75;;;9.10;98.40;;;;;;5071159;28;20042;-77
2021/05/14 03:23:49;;;;;;;4.15;0.90;;;9.00;98.40;;;;;;5051849;28;20480;-76
2021/05/14 03:26:15;;;;;;;1.08;0.70;;;9.10;98.60;;;;;;5071378;28;20028;-76
2021/05/14 03:28:40;;;;;;;2.28;1.10;;;9.00;98.60;;;;;;5053227;28;20101;-76
2021/05/14 03:31:06;;;;;;;1.40;0.80;;;9.00;98.40;;;;;;5052184;28;20028;-76
2021/05/14 03:33:32;;;;;;;5.22;1.15;;;9.00;98.70;;;;;;5071555;28;20043;-75
2021/05/14 03:35:58;;;;;;;1.30;0.70;;;9.00;98.80;;;;;;5069931;28;20044;-75
2021/05/14 03:38:31;;;;;;;2.35;0.70;;;8.90;98.70;;;;;;5053312;28;20029;-75
2021/05/14 03:40:56;;;;;;;0.88;0.70;;;9.00;98.70;;;;;;5070190;28;20070;-74
2021/05/14 03:43:22;;;;;;;1.63;0.80;;;8.90;98.70;;;;;;5075716;28;20035;-75
2021/05/14 03:45:48;;;;;;;2.10;0.65;;;8.90;98.80;;;;;;5070619;28;20499;-73
2021/05/14 03:48:20;;;;;;;1.23;0.77;;;9.00;98.50;;;;;;5058318;28;20044;-75
2021/05/14 03:50:51;;;;;;;3.28;0.70;;;8.90;98.60;;;;;;5070956;28;20035;-73
2021/05/14 03:53:18;;;;;;;0.85;0.70;;;8.90;98.80;;;;;;5052840;28;20028;-76
2021/05/14 03:55:44;;;;;;;1.13;0.80;;;8.90;99.10;;;;;;5071022;28;20035;-76
2021/05/14 03:58:10;;;;;;;4.18;0.80;;;8.80;99.40;;;;;;5070097;28;20108;-74
2021/05/14 04:00:36;;;;;;;1.55;0.70;;;8.90;99.30;;;;;;5070594;28;20049;-75
2021/05/14 04:03:01;;;;;;;1.05;0.70;;;8.80;99.20;;;;;;5070702;28;20028;-76
2021/05/14 04:05:27;;;;;;;1.25;0.60;;;8.80;99.30;;;;;;5070718;28;20528;-76
2021/05/14 04:07:54;;;;;;;2.65;0.93;;;8.80;99.60;;;;;;5069661;28;20051;-76
2021/05/14 04:15:37;;;;;;;1.08;0.75;;;8.70;99.90;;;;;;5070478;28;20434;-76
2021/05/14 04:18:03;;;;;;;3.70;0.70;;;8.60;99.90;;;;;;5052399;28;20103;-76
2021/05/14 04:20:29;;;;;;;1.45;0.88;;;8.60;99.90;;;;;;5052256;28;20106;-75
2021/05/14 04:22:54;;;;;;;2.13;0.70;;;8.60;99.90;;;;;;5070254;28;20020;-75
2021/05/14 04:25:20;;;;;;;1.95;0.70;;;8.50;99.90;;;;;;5071140;28;20480;-76
2021/05/14 04:27:46;;;;;;;2.80;1.00;;;8.50;99.90;;;;;;5070156;28;20036;-72
2021/05/14 04:30:12;;;;;;;2.08;1.17;;;8.40;99.90;;;;;;5070527;28;20530;-76
2021/05/14 04:32:38;;;;;;;2.65;0.82;;;8.40;99.90;;;;;;5070814;28;20028;-76
2021/05/14 04:35:04;;;;;;;3.40;0.60;;;8.30;99.90;;;;;;5070107;28;20385;-76
2021/05/14 04:37:30;;;;;;;3.42;0.80;;;8.30;99.90;;;;;;5069124;28;20064;-76
2021/05/14 04:39:55;;;;;;;1.38;0.82;;;8.20;99.90;;;;;;5073472;28;20469;-76
2021/05/14 04:42:21;;;;;;;1.80;0.70;;;8.30;99.90;;;;;;5065651;28;20032;-76
2021/05/14 04:44:47;;;;;;;1.65;0.60;;;8.30;99.90;;;;;;5073676;28;20381;-71
2021/05/14 04:47:12;;;;;;;1.67;0.90;;;8.40;99.90;;;;;;5055483;28;20051;-76
2021/05/14 04:49:38;;;;;;;2.65;0.90;;;8.40;99.90;;;;;;5074202;28;20028;-76
2021/05/14 04:52:19;;;;;;;0.90;0.70;;;8.50;99.90;;;;;;5055229;28;20430;-77
2021/05/14 04:54:46;;;;;;;1.10;0.80;;;8.60;99.90;;;;;;5055750;28;20082;-77
2021/05/14 04:57:12;;;;;;;1.08;0.75;;;8.60;99.90;;;;;;5072486;28;20033;-76
2021/05/14 04:59:38;;;;;;;1.73;1.30;;;8.70;99.90;;;;;;5084758;28;20127;-76
2021/05/14 05:02:09;;;;;;;1.02;0.93;;;8.70;99.90;;;;;;5092990;28;20118;-75
2021/05/14 05:04:37;;;;;;;;;;;8.80;99.90;;;;;;5099435;28;20031;-75
2021/05/14 05:07:04;;;;;;;1.48;0.70;;;8.90;99.90;;;;;;5096579;28;19911;-76
2021/05/14 05:09:30;;;;;;;0.98;0.70;;;9.00;99.90;;;;;;5092623;28;20063;-75
2021/05/14 05:11:56;;;;;;;1.23;0.80;;;9.00;99.90;;;;;;5093068;28;20055;-75
2021/05/14 05:14:22;;;;;;;2.03;0.90;;;9.10;99.90;;;;;;5093423;28;20031;-75
2021/05/14 05:16:47;;;;;;;1.45;0.90;;;9.20;99.90;;;;;;5093216;28;20028;-74
2021/05/14 05:19:13;;;;;;;1.25;0.88;;;9.30;99.90;;;;;;5093855;28;20027;-76
2021/05/14 05:21:38;;;;;;;2.65;1.10;;;9.40;99.50;;;;;;5092236;28;20043;-76
2021/05/14 05:24:04;;;;;;;3.63;1.13;;;9.50;98.60;;;;;;5092797;28;20094;-76
2021/05/14 05:26:30;;;;;;;2.45;0.85;;;9.50;98.50;;;;;;5093115;28;20028;-76
2021/05/14 05:28:56;;;;;;;1.35;0.70;;;9.60;98.20;;;;;;5075283;28;20480;-77
2021/05/14 05:31:22;;;;;;;1.00;0.70;;;9.70;97.80;;;;;;5092942;28;20173;-74
2021/05/14 05:33:47;;;;;;;2.85;0.80;;;9.90;97.40;;;;;;5092150;28;20362;-74
2021/05/14 05:36:13;;;;;;;2.60;1.23;;;10.00;96.30;;;;;;5088514;28;20028;-75
2021/05/14 05:38:39;;;;;;;1.13;0.60;;;10.20;94.60;;;;;;5092186;28;20089;-76
2021/05/14 05:41:04;;;;;;;2.92;0.90;;;10.30;95.00;;;;;;5092235;28;20408;-75
2021/05/14 05:43:30;;;;;;;1.10;0.77;;;10.40;94.10;;;;;;5093332;28;20115;-75
2021/05/14 05:45:56;;;;;;;2.42;0.82;;;10.50;93.90;;;;;;5091479;28;20024;-76
2021/05/14 05:48:21;;;;;;;1.20;0.70;;;10.60;93.00;;;;;;5090469;28;20032;-75
2021/05/14 05:50:48;;;;;;;6.13;0.77;;;10.70;92.60;;;;;;5083586;28;20029;-75
2021/05/14 05:53:15;;;;;;;2.33;0.90;;;10.80;92.10;;;;;;5092412;28;20024;-75
2021/05/14 05:55:41;;;;;;;2.58;0.70;;;10.90;91.40;;;;;;5092752;28;20552;-72
2021/05/14 05:58:11;;;;;;;3.03;0.95;;;11.00;91.40;;;;;;5083793;28;20059;-75
2021/05/14 06:00:38;;;;;;;5.25;1.42;;;11.10;91.20;;;;;;5092169;28;20044;-75
2021/05/14 06:03:06;;;;;;;0.88;0.60;;;11.20;90.20;;;;;;5090320;28;20452;-76
2021/05/14 06:05:31;;;;;;;2.63;1.00;;;11.30;89.80;;;;;;5084892;28;20020;-75
2021/05/14 06:07:57;;;;;;;1.83;0.70;;;11.40;90.20;;;;;;5090125;28;20031;-73
2021/05/14 06:10:23;;;;;;;2.03;0.57;;;11.50;89.50;;;;;;5091681;28;20377;-75
2021/05/14 06:12:49;;;;;;;0.63;0.60;;;11.50;87.30;;;;;;5091208;28;20377;-75
2021/05/14 06:15:14;;;;;;;0.75;0.60;;;11.70;87.40;;;;;;5091476;28;20036;-74
2021/05/14 06:17:42;;;;;;;1.45;0.60;;;11.80;85.60;;;;;;5090230;28;20039;-75
2021/05/14 06:20:11;;;;;;;1.48;0.85;;;11.90;84.70;;;;;;5091795;28;20031;-75
2021/05/14 06:22:37;;;;;;;2.08;0.47;;;11.90;83.80;;;;;;5090945;28;20101;-76
2021/05/14 06:25:04;;;;;;;1.65;0.80;;;12.00;82.80;;;;;;5091774;28;20024;-76
2021/05/14 06:27:30;;;;;;;4.35;0.68;;;12.10;81.90;;;;;;5092350;28;20040;-75
2021/05/14 06:29:56;;;;;;;2.28;0.85;;;12.20;82.00;;;;;;5082806;28;20472;-75
2021/05/14 06:32:22;;;;;;;5.28;0.93;;;12.30;81.80;;;;;;5086940;28;20036;-74
2021/05/14 06:34:49;;;;;;;1.02;0.50;;;12.50;80.80;;;;;;5091723;28;20028;-76
2021/05/14 06:37:14;;;;;;;1.52;0.38;;;12.60;80.00;;;;;;5091809;28;20470;-75
2021/05/14 06:39:40;;;;;;;1.30;0.35;;;12.70;78.40;;;;;;5092322;28;20046;-75
2021/05/14 06:42:06;;;;;;;0.90;0.20;;;12.90;77.00;;;;;;5091502;28;20046;-75
2021/05/14 06:44:32;;;;;;;2.20;0.45;;;13.00;76.50;;;;;;5091240;28;20036;-76
2021/05/14 06:46:57;;;;;;;2.05;0.60;;;13.20;74.30;;;;;;5090843;28;20457;-75
2021/05/14 06:49:23;;;;;;;3.10;1.15;;;13.30;73.60;;;;;;5090613;28;20107;-75
2021/05/14 06:51:49;;;;;;;4.38;1.15;;;13.40;74.70;;;;;;5091705;28;20464;-73
2021/05/14 06:54:15;;;;;;;1.15;0.90;;;13.40;74.30;;;;;;5091098;28;20031;-75
2021/05/14 06:56:41;;;;;;;2.08;0.90;;;13.40;74.90;;;;;;5091668;28;20107;-75
2021/05/14 06:59:07;;;;;;;1.75;0.90;;;13.50;74.10;;;;;;5088633;28;20131;-75
2021/05/14 07:01:33;;;;;;;2.13;0.60;;;13.70;73.60;;;;;;5091421;28;20032;-77
2021/05/14 07:03:59;;;;;;;0.63;0.60;;;13.70;72.80;;;;;;5090413;28;20080;-75
2021/05/14 07:06:24;;;;;;;1.75;1.02;;;13.70;72.50;;;;;;5091791;28;20028;-74
2021/05/14 07:08:50;;;;;;;1.83;1.00;;;13.70;72.00;;;;;;5091607;28;20039;-75
2021/05/14 07:11:17;;;;;;;2.03;0.65;;;13.80;70.90;;;;;;5090972;28;20036;-76
2021/05/14 07:13:43;;;;;;;1.80;0.65;;;13.70;71.90;;;;;;5091416;28;20024;-75
2021/05/14 07:16:09;;;;;;;1.05;0.40;;;13.70;72.30;;;;;;5090552;28;20036;-75
2021/05/14 07:18:34;;;;;;;1.75;0.30;;;13.70;72.70;;;;;;5090313;28;20054;-74
2021/05/14 07:21:00;;;;;;;1.23;0.77;;;13.70;71.80;;;;;;5090913;28;20461;-75
2021/05/14 07:23:26;;;;;;;1.67;0.50;;;13.70;72.00;;;;;;5086920;28;20818;-76
2021/05/14 07:25:52;;;;;;;0.73;0.50;;;13.70;72.00;;;;;;5083589;28;20108;-74
2021/05/14 07:28:18;;;;;;;0.50;0.47;;;13.70;71.70;;;;;;5090829;28;20030;-76
2021/05/14 07:30:44;;;;;;;1.05;0.30;;;13.80;70.10;;;;;;5090874;28;20025;-77
2021/05/14 07:33:10;;;;;;;2.63;0.57;;;13.80;70.20;;;;;;5088856;28;20446;-74
2021/05/14 07:35:36;;;;;;;0.30;0.30;;;13.90;71.30;;;;;;5089672;28;20028;-76
2021/05/14 07:38:02;;;;;;;0.20;0.20;;;14.00;69.20;;;;;;5090320;28;20480;-77
2021/05/14 07:40:27;;;;;;;0.85;0.20;;;14.10;69.30;;;;;;5090069;28;20039;-76
2021/05/14 07:42:53;;;;;;;0.40;0.32;;;14.10;69.50;;;;;;5089370;28;20031;-72
2021/05/14 07:45:19;;;;;;;0.38;0.38;;;14.20;69.30;;;;;;5089588;28;20036;-76
2021/05/14 07:47:44;;;;;;;1.02;0.32;;;14.20;70.20;;;;;;5090300;28;20486;-75
2021/05/14 07:50:11;;;;;;;0.82;0.40;;;14.20;69.70;;;;;;5090322;28;20043;-76
2021/05/14 07:52:36;;;;;;;0.65;0.38;;;14.50;69.10;;;;;;5088130;28;20472;-76
2021/05/14 07:55:03;;;;;;;0.75;0.20;;;14.80;67.40;;;;;;5090223;28;20107;-76
2021/05/14 07:57:28;;;;;;;0.30;0.30;;;14.90;66.90;;;;;;5091233;28;20481;-76
2021/05/14 07:59:54;;;;;;;3.42;0.43;;;15.00;66.30;;;;;;5076203;28;20040;-72
2021/05/14 08:02:20;;;;;;;3.78;0.40;;;15.10;66.10;;;;;;5052171;28;20433;-76
2021/05/14 08:04:46;;;;;;;0.75;0.30;;;15.20;65.60;;;;;;5052505;28;20095;-76
2021/05/14 08:07:12;;;;;;;2.67;0.40;;;15.20;66.30;;;;;;5069908;28;20055;-76
2021/05/14 08:09:38;;;;;;;0.63;0.30;;;15.20;65.80;;;;;;5067275;28;20024;-75
2021/05/14 08:12:05;;;;;;;0.60;0.30;;;15.10;65.90;;;;;;5075127;28;20047;-76
2021/05/14 08:14:31;;;;;;;1.35;0.50;;;15.10;65.00;;;;;;5069035;28;20021;-76
2021/05/14 08:16:58;;;;;;;1.85;0.38;;;15.10;64.60;;;;;;5055980;28;20410;-72
2021/05/14 08:19:24;;;;;;;0.50;0.30;;;15.10;64.10;;;;;;5051888;28;20028;-73
2021/05/14 08:21:50;;;;;;;1.48;0.50;;;15.00;63.40;;;;;;5070404;28;20051;-75
2021/05/14 08:24:16;;;;;;;1.08;0.30;;;15.00;64.00;;;;;;5073068;28;20542;-71
2021/05/14 08:26:42;;;;;;;1.40;0.57;;;14.90;63.90;;;;;;5064651;28;20029;-71
2021/05/14 08:29:09;;;;;;;1.35;0.20;;;14.90;64.50;;;;;;5070998;28;20487;-72
2021/05/14 08:31:39;;;;;;;0.90;0.20;;;15.00;65.90;;;;;;5073340;28;20048;-72
2021/05/14 08:34:04;;;;;;;0.70;0.60;;;15.30;62.50;;;;;;5072722;28;20029;-72
2021/05/14 08:36:31;;;;;;;1.30;0.30;;;15.60;63.00;;;;;;5056076;28;20038;-74
2021/05/14 08:38:56;;;;;;;2.38;0.55;;;15.70;62.30;;;;;;5073528;28;20024;-73
2021/05/14 08:41:24;;;;;;;2.70;0.50;;;15.70;61.90;;;;;;5073585;28;20039;-73
2021/05/14 08:43:50;;;;;;;0.47;0.28;;;15.60;62.50;;;;;;5065427;28;20071;-72
2021/05/14 08:46:19;;;;;;;0.28;0.28;;;15.50;62.80;;;;;;5055392;28;20024;-73
2021/05/14 08:48:45;;;;;;;1.10;0.30;;;15.50;62.70;;;;;;5048790;28;20037;-74
2021/05/14 08:51:12;;;;;;;1.77;0.45;;;15.50;62.10;;;;;;5072993;28;20448;-76
2021/05/14 08:53:42;;;;;;;0.35;0.20;;;15.50;62.00;;;;;;5073553;28;20103;-68
2021/05/14 08:56:08;;;;;;;1.08;0.40;;;15.50;62.20;;;;;;5054661;28;20025;-70
2021/05/14 08:58:37;;;;;;;0.40;0.30;;;15.80;60.90;;;;;;5059464;28;20097;-70
2021/05/14 09:01:03;;;;;;;0.73;0.57;;;15.90;61.40;;;;;;5091970;28;20062;-69
2021/05/14 09:03:29;;;;;;;1.52;0.30;;;15.80;61.70;;;;;;5093536;28;20404;-70
2021/05/14 09:05:55;;;;;;;0.85;0.40;;;15.90;61.30;;;;;;5093997;28;20032;-70
2021/05/14 09:08:31;;;;;;;2.80;0.32;;;15.90;61.50;;;;;;5092742;28;20040;-71
2021/05/14 09:10:58;;;;;;;2.45;0.50;;;15.70;60.30;;;;;;5093207;28;20035;-73
2021/05/14 09:13:44;;;;;;;0.55;0.32;;;15.70;61.40;;;;;;5087351;28;20025;-72
2021/05/14 09:16:09;;;;;;;1.00;0.40;;;15.70;61.50;;;;;;5092723;28;20075;-70
2021/05/14 09:18:35;;;;;;;1.15;0.70;;;15.70;61.80;;;;;;5093879;28;20051;-73
2021/05/14 09:21:02;;;;;;;2.38;0.40;;;15.90;60.80;;;;;;5080628;28;20039;-73
2021/05/14 09:23:36;;;;;;;3.05;1.25;;;16.00;60.50;;;;;;5091302;28;20389;-70
2021/05/14 09:26:10;;;;;;;0.65;0.47;;;16.00;60.70;;;;;;5090955;28;20461;-72
2021/05/14 09:28:42;;;;;;;1.00;0.30;;;16.00;60.80;;;;;;5093218;28;20020;-72
2021/05/14 09:31:20;;;;;;;2.75;0.38;;;15.90;61.00;;;;;;5083522;28;20047;-72
2021/05/14 09:33:52;;;;;;;0.25;0.25;;;15.70;60.60;;;;;;5093486;28;20024;-72
2021/05/14 09:36:23;;;;;;;0.80;0.30;;;15.60;60.80;;;;;;5092156;28;20024;-72
2021/05/14 09:38:54;;;;;;;0.88;0.30;;;15.50;62.00;;;;;;5093105;28;20360;-72
2021/05/14 09:41:26;;;;;;;2.22;0.47;;;15.40;62.10;;;;;;5092093;28;20109;-72
2021/05/14 09:43:57;;;;;;;1.13;0.52;;;15.30;64.70;;;;;;5090599;28;20035;-73
2021/05/14 09:46:30;;;;;;;1.65;0.32;;;15.20;65.90;;;;;;5084445;28;20039;-74
2021/05/14 09:48:59;;;;;;;0.30;0.30;;;15.00;66.60;;;;;;5093559;28;20148;-74
2021/05/14 09:51:25;;;;;;;1.58;0.40;;;15.00;68.30;;;;;;5092237;28;20035;-74
2021/05/14 09:53:52;;;;;;;0.22;0.22;;;15.00;68.50;;;;;;5092729;28;20031;-69
2021/05/14 09:56:33;;;;;;;0.45;0.30;;;15.10;66.00;;;;;;5091573;28;20054;-75
2021/05/14 09:59:02;;;;;;;1.05;0.30;;;15.20;65.40;;;;;;5090650;28;20040;-70
2021/05/14 10:01:30;;;;;;;0.47;0.25;;;15.40;65.70;;;;;;5091169;28;20039;-73
2021/05/14 10:03:55;;;;;;;0.75;0.22;;;15.60;63.60;;;;;;5092688;28;20115;-73
2021/05/14 10:06:22;;;;;;;1.10;0.32;;;15.80;63.50;;;;;;5084853;28;20085;-72
2021/05/14 10:08:51;;;;;;;0.55;0.30;;;16.00;63.20;;;;;;5089325;28;20024;-73
2021/05/14 10:11:21;;;;;;;0.85;0.32;;;16.00;61.70;;;;;;5082826;28;20050;-72
2021/05/14 10:13:48;;;;;;;0.35;0.25;;;16.00;61.00;;;;;;5092127;28;20022;-73
2021/05/14 10:16:14;;;;;;;3.45;0.88;;;16.00;61.40;;;;;;5089918;28;20481;-73
2021/05/14 10:18:47;;;;;;;3.83;0.55;;;16.00;61.60;;;;;;5092894;28;20027;-74
2021/05/14 10:21:13;;;;;;;1.25;0.30;;;15.90;61.80;;;;;;5090675;28;20101;-71
2021/05/14 10:23:43;;;;;;;3.17;0.50;;;15.90;61.40;;;;;;5096970;28;20110;-69
2021/05/14 10:26:10;;;;;;;1.15;0.20;;;15.80;61.60;;;;;;5090757;28;20036;-70
2021/05/14 10:28:54;;;;;;;1.05;0.40;;;15.80;61.60;;;;;;5092565;28;20537;-69
2021/05/14 10:31:22;;;;;;;0.88;0.30;;;15.80;61.90;;;;;;5089662;28;20032;-69
2021/05/14 10:33:56;;;;;;;3.10;0.30;;;15.80;63.20;;;;;;5091705;28;20086;-70
2021/05/14 10:36:22;;;;;;;1.10;0.55;;;15.90;62.50;;;;;;5090397;28;20024;-71
2021/05/14 10:39:04;;;;;;;0.60;0.30;;;15.80;62.60;;;;;;5090665;28;20035;-72
2021/05/14 10:41:30;;;;;;;2.83;0.60;;;15.30;66.00;;;;;;5095455;28;20353;-69
2021/05/14 10:44:04;;;;;;;1.83;0.65;;;14.90;68.60;;;;;;5092114;28;20381;-68
2021/05/14 10:46:32;;;;;;;4.05;0.40;;;14.40;71.30;;;;;;5091254;28;20104;-71
2021/05/14 10:49:05;;;;;;;1.83;0.40;;;13.70;74.80;;;;;;5091034;28;20027;-69
2021/05/14 10:51:45;;;;;;;3.42;0.70;;;13.20;75.90;;;;;;5091963;28;20032;-69
2021/05/14 10:54:39;;;;;;;2.75;0.95;;;12.80;85.70;;;;;;5081473;28;20035;-69
2021/05/14 10:57:25;;;;;;;5.70;0.93;;;12.60;94.30;;;;;;5090843;28;20488;-69
2021/05/14 10:59:51;;;;;;;3.03;1.15;;;12.40;95.20;;;;;;5088335;28;20048;-71
2021/05/14 11:02:28;;;;;;;1.70;0.50;;;12.60;99.90;;;;;;5082830;28;20131;-68
2021/05/14 11:04:55;;;;;;;1.52;0.63;;;12.80;98.10;;;;;;5091030;28;20028;-73
2021/05/14 11:07:40;;;;;;;1.23;0.50;;;12.80;97.80;;;;;;5090340;28;20023;-75
2021/05/14 11:10:15;;;;;;;1.20;0.32;;;12.90;99.90;;;;;;5090341;28;20028;-69
2021/05/14 11:12:43;;;;;;;1.40;0.43;;;13.20;99.40;;;;;;5091066;28;20472;-71
2021/05/14 11:15:30;;;;;;;2.28;0.50;;;13.40;99.30;;;;;;5085182;28;20491;-73
2021/05/14 11:18:14;;;;;;;0.43;0.32;;;13.50;99.90;;;;;;5090353;28;20024;-74
2021/05/14 11:20:45;;;;;;;1.52;0.55;;;13.50;88.50;;;;;;5089728;28;20073;-73
2021/05/14 11:23:31;;;;;;;2.53;0.30;;;13.30;86.80;;;;;;5088065;28;20362;-74
2021/05/14 11:25:57;;;;;;;2.75;0.50;;;13.20;94.20;;;;;;5091153;28;20024;-74
2021/05/14 11:28:44;;;;;;;0.85;0.50;;;13.20;99.90;;;;;;5090307;28;20039;-78
2021/05/14 11:31:15;;;;;;;1.27;0.77;;;13.40;97.10;;;;;;5090321;28;20540;-75
2021/05/14 11:33:52;;;;;;;1.33;0.45;;;13.50;96.10;;;;;;5090785;28;20149;-76
2021/05/14 11:36:18;;;;;;;1.52;0.50;;;13.70;93.90;;;;;;5090502;28;20481;-77
2021/05/14 11:38:45;;;;;;;2.75;0.50;;;14.00;88.60;;;;;;5089542;28;20400;-74
2021/05/14 11:41:16;;;;;;;0.80;0.50;;;14.10;89.60;;;;;;5087557;28;20174;-73
2021/05/14 11:43:54;;;;;;;;;;;14.20;90.60;;;;;;5082631;28;20023;-73
2021/05/14 11:46:24;;;;;;;0.40;0.40;;;14.30;91.90;;;;;;5091873;28;19908;-71
2021/05/14 11:48:49;;;;;;;0.43;0.43;;;14.50;86.50;;;;;;5095375;28;20453;-74
2021/05/14 11:51:15;;;;;;;1.65;0.55;;;14.60;83.00;;;;;;5094349;28;20032;-76
2021/05/14 11:53:41;;;;;;;0.98;0.65;;;14.80;86.30;;;;;;5094647;28;20028;-77
2021/05/14 11:56:08;;;;;;;1.67;0.65;;;15.10;80.00;;;;;;5085848;28;20529;-76
2021/05/14 11:58:33;;;;;;;1.83;0.45;;;15.30;77.80;;;;;;5076686;28;20058;-74
2021/05/14 12:01:02;;;;;;;0.68;0.30;;;15.70;72.60;;;;;;5094295;28;20127;-75
2021/05/14 12:03:27;;;;;;;1.48;0.40;;;16.10;75.00;;;;;;5093123;28;20107;-75
2021/05/14 12:05:55;;;;;;;3.67;0.45;;;16.50;76.10;;;;;;5095569;28;20108;-80
2021/05/14 12:08:23;;;;;;;1.58;0.70;;;17.00;70.60;;;;;;5094530;28;20044;-81
2021/05/14 12:11:03;;;;;;;0.70;0.50;;;17.50;65.90;;;;;;5094749;28;20112;-77
2021/05/14 12:13:33;;;;;;;0.63;0.35;;;17.80;67.60;;;;;;5093523;28;20033;-76
2021/05/14 12:16:04;;;;;;;1.13;0.47;;;17.90;63.40;;;;;;5094988;28;20032;-84
2021/05/14 12:18:32;;;;;;;0.73;0.45;;;18.20;64.80;;;;;;5094488;28;20035;-75
2021/05/14 12:21:00;;;;;;;0.93;0.40;;;18.40;60.70;;;;;;5093360;28;20032;-73
2021/05/14 12:23:26;;;;;;;1.17;0.50;;;18.70;61.70;;;;;;5093599;28;20103;-73
2021/05/14 12:25:58;;;;;;;1.40;1.08;;;18.90;60.10;;;;;;5093916;28;20107;-74
2021/05/14 12:28:45;;;;;;;0.75;0.60;;;19.30;57.30;;;;;;5093628;28;20408;-74
2021/05/14 12:31:11;;;;;;;1.08;0.57;;;19.50;57.10;;;;;;5093959;28;20054;-73
2021/05/14 12:33:51;;;;;;;1.55;0.65;;;19.70;55.90;;;;;;5093703;28;20461;-75
2021/05/14 12:36:51;;;;;;;1.65;0.50;;;19.80;56.80;;;;;;5092586;28;20122;-76
2021/05/14 12:39:18;;;;;;;1.38;0.68;;;20.10;56.90;;;;;;5088413;28;20032;-76
2021/05/14 12:41:50;;;;;;;3.10;0.40;;;20.60;55.70;;;;;;5094096;28;20032;-75
2021/05/14 12:44:21;;;;;;;1.65;0.47;;;20.70;51.80;;;;;;5091941;28;20028;-76
2021/05/14 12:47:07;;;;;;;0.85;0.60;;;20.90;51.00;;;;;;5093967;28;20103;-71
2021/05/14 12:49:40;;;;;;;0.88;0.50;;;20.80;49.60;;;;;;5084970;28;20046;-73
2021/05/14 12:52:11;;;;;;;3.13;0.60;;;20.60;49.40;;;;;;5093277;28;20066;-75
2021/05/14 12:54:39;;;;;;;1.38;0.50;;;20.40;51.10;;;;;;5093853;28;20099;-77
2021/05/14 12:57:05;;;;;;;2.65;0.52;;;20.50;54.30;;;;;;5091878;28;20036;-76
2021/05/14 12:59:31;;;;;;;1.55;0.50;;;20.70;52.00;;;;;;5075213;28;20128;-75